Islamorada, Florida
Current Conditions -  °F | °C
As of 1:53 AM on Thursday 23 Oct 2014 (Local Time) from KMTH Reporting Station
Light Rain Light Rain  
Wind Chill: 75°   Ceiling: Unl
Heat Index: 75°   Visibility: 10mi
Dew Point: 74°   Wind: 7mph
Humidity: 96%   Direction: 80°E
Pressure: 29.9"   Gusts: NA
Location:  24.93°N, 80.63°W
Report Text: KMTH 230553Z AUTO 08006KT 10SM -RA FEW015 FEW027 SCT110 24/23 A2990 RMK AO2 SLP124 P0004 60016 T02390233 10239 20233 58009 $
Loading
Personal Weather Stations






























Interactive Weather Map New forecast layout! Learn more

10-Day Weather Forecast

Advertisements
Track Severe Weather on mobile